<?xml version="1.0" encoding="UTF-8"?>
<gpx xmlns="http://www.topografix.com/GPX/1/1" xmlns:xsi="http://www.w3.org/2001/XMLSchema-instance" version="1.1" xsi:schemaLocation="http://www.topografix.com/GPX/1/1 http://www.topografix.com/GPX/1/1/gpx.xsd">
  <metadata>
    <name>Fort De Soto Trilogy - Sprint Aquabike</name>
  </metadata>
  <trk>
    <name>Fort De Soto Trilogy - Sprint Aquabike</name>
    <trkseg>
      <trkpt lat="27.638896" lon="-82.738004">
        <ele>1.000005</ele>
        <time>2024-09-29T07:08:03.000Z</time>
      </trkpt>
      <trkpt lat="27.637618" lon="-82.737336">
        <ele>0.999997</ele>
        <time>2024-09-29T07:08:19.000Z</time>
      </trkpt>
      <trkpt lat="27.637695" lon="-82.737163">
        <ele>0.999991</ele>
        <time>2024-09-29T07:08:21.000Z</time>
      </trkpt>
      <trkpt lat="27.637869" lon="-82.736713">
        <ele>1.000001</ele>
        <time>2024-09-29T07:08:26.000Z</time>
      </trkpt>
      <trkpt lat="27.637474" lon="-82.736515">
        <ele>1</ele>
        <time>2024-09-29T07:08:31.000Z</time>
      </trkpt>
      <trkpt lat="27.635875" lon="-82.735688">
        <ele>0.999991</ele>
        <time>2024-09-29T07:08:51.000Z</time>
      </trkpt>
      <trkpt lat="27.635522" lon="-82.735527">
        <ele>0.999992</ele>
        <time>2024-09-29T07:08:55.000Z</time>
      </trkpt>
      <trkpt lat="27.634843" lon="-82.735307">
        <ele>0.999997</ele>
        <time>2024-09-29T07:09:03.000Z</time>
      </trkpt>
      <trkpt lat="27.634221" lon="-82.735157">
        <ele>1.000004</ele>
        <time>2024-09-29T07:09:10.000Z</time>
      </trkpt>
      <trkpt lat="27.633754" lon="-82.735092">
        <ele>1.000207</ele>
        <time>2024-09-29T07:09:15.000Z</time>
      </trkpt>
      <trkpt lat="27.633343" lon="-82.735057">
        <ele>1.001075</ele>
        <time>2024-09-29T07:09:20.000Z</time>
      </trkpt>
      <trkpt lat="27.631988" lon="-82.735048">
        <ele>1.005105</ele>
        <time>2024-09-29T07:09:35.000Z</time>
      </trkpt>
      <trkpt lat="27.631946" lon="-82.735039">
        <ele>1.006241</ele>
        <time>2024-09-29T07:09:35.000Z</time>
      </trkpt>
      <trkpt lat="27.627471" lon="-82.734977">
        <ele>1.165668</ele>
        <time>2024-09-29T07:10:25.000Z</time>
      </trkpt>
      <trkpt lat="27.618618" lon="-82.734843">
        <ele>2.479792</ele>
        <time>2024-09-29T07:12:03.000Z</time>
      </trkpt>
      <trkpt lat="27.617928" lon="-82.734836">
        <ele>2.498732</ele>
        <time>2024-09-29T07:12:11.000Z</time>
      </trkpt>
      <trkpt lat="27.617145" lon="-82.734811">
        <ele>2.321202</ele>
        <time>2024-09-29T07:12:20.000Z</time>
      </trkpt>
      <trkpt lat="27.616754" lon="-82.734733">
        <ele>2.185098</ele>
        <time>2024-09-29T07:12:24.000Z</time>
      </trkpt>
      <trkpt lat="27.616372" lon="-82.734548">
        <ele>2.042461</ele>
        <time>2024-09-29T07:12:29.000Z</time>
      </trkpt>
      <trkpt lat="27.615911" lon="-82.734117">
        <ele>1.838529</ele>
        <time>2024-09-29T07:12:36.000Z</time>
      </trkpt>
      <trkpt lat="27.615757" lon="-82.73391">
        <ele>1.746813</ele>
        <time>2024-09-29T07:12:39.000Z</time>
      </trkpt>
      <trkpt lat="27.615607" lon="-82.733631">
        <ele>1.636579</ele>
        <time>2024-09-29T07:12:42.000Z</time>
      </trkpt>
      <trkpt lat="27.615449" lon="-82.733185">
        <ele>1.482644</ele>
        <time>2024-09-29T07:12:47.000Z</time>
      </trkpt>
      <trkpt lat="27.615395" lon="-82.732561">
        <ele>1.275625</ele>
        <time>2024-09-29T07:12:53.000Z</time>
      </trkpt>
      <trkpt lat="27.615431" lon="-82.732256">
        <ele>1.208627</ele>
        <time>2024-09-29T07:12:56.000Z</time>
      </trkpt>
      <trkpt lat="27.615476" lon="-82.731957">
        <ele>1.178456</ele>
        <time>2024-09-29T07:12:59.000Z</time>
      </trkpt>
      <trkpt lat="27.615607" lon="-82.731561">
        <ele>1.139024</ele>
        <time>2024-09-29T07:13:03.000Z</time>
      </trkpt>
      <trkpt lat="27.616199" lon="-82.73033">
        <ele>1.024178</ele>
        <time>2024-09-29T07:13:17.000Z</time>
      </trkpt>
      <trkpt lat="27.616441" lon="-82.729857">
        <ele>1.016833</ele>
        <time>2024-09-29T07:13:22.000Z</time>
      </trkpt>
      <trkpt lat="27.617166" lon="-82.728309">
        <ele>1.000001</ele>
        <time>2024-09-29T07:13:39.000Z</time>
      </trkpt>
      <trkpt lat="27.617398" lon="-82.727791">
        <ele>1.000008</ele>
        <time>2024-09-29T07:13:45.000Z</time>
      </trkpt>
      <trkpt lat="27.618049" lon="-82.7264">
        <ele>0.999998</ele>
        <time>2024-09-29T07:14:00.000Z</time>
      </trkpt>
      <trkpt lat="27.620025" lon="-82.722138">
        <ele>0.999994</ele>
        <time>2024-09-29T07:14:47.000Z</time>
      </trkpt>
      <trkpt lat="27.62334" lon="-82.71501">
        <ele>1.000006</ele>
        <time>2024-09-29T07:16:06.000Z</time>
      </trkpt>
      <trkpt lat="27.623663" lon="-82.714301">
        <ele>1.000004</ele>
        <time>2024-09-29T07:16:14.000Z</time>
      </trkpt>
      <trkpt lat="27.623789" lon="-82.714002">
        <ele>0.999992</ele>
        <time>2024-09-29T07:16:17.000Z</time>
      </trkpt>
      <trkpt lat="27.624188" lon="-82.713174">
        <ele>0.999997</ele>
        <time>2024-09-29T07:16:26.000Z</time>
      </trkpt>
      <trkpt lat="27.624569" lon="-82.712343">
        <ele>0.999991</ele>
        <time>2024-09-29T07:16:35.000Z</time>
      </trkpt>
      <trkpt lat="27.624956" lon="-82.711522">
        <ele>1</ele>
        <time>2024-09-29T07:16:44.000Z</time>
      </trkpt>
      <trkpt lat="27.625574" lon="-82.710201">
        <ele>1.000008</ele>
        <time>2024-09-29T07:16:59.000Z</time>
      </trkpt>
      <trkpt lat="27.625909" lon="-82.709456">
        <ele>0.999997</ele>
        <time>2024-09-29T07:17:07.000Z</time>
      </trkpt>
      <trkpt lat="27.626208" lon="-82.70884">
        <ele>1.000008</ele>
        <time>2024-09-29T07:17:14.000Z</time>
      </trkpt>
      <trkpt lat="27.626681" lon="-82.707815">
        <ele>0.999992</ele>
        <time>2024-09-29T07:17:25.000Z</time>
      </trkpt>
      <trkpt lat="27.627154" lon="-82.706803">
        <ele>0.999996</ele>
        <time>2024-09-29T07:17:36.000Z</time>
      </trkpt>
      <trkpt lat="27.627747" lon="-82.705607">
        <ele>0.999999</ele>
        <time>2024-09-29T07:17:50.000Z</time>
      </trkpt>
      <trkpt lat="27.627946" lon="-82.705296">
        <ele>0.999991</ele>
        <time>2024-09-29T07:17:54.000Z</time>
      </trkpt>
      <trkpt lat="27.628228" lon="-82.704879">
        <ele>0.999998</ele>
        <time>2024-09-29T07:17:59.000Z</time>
      </trkpt>
      <trkpt lat="27.628391" lon="-82.704658">
        <ele>0.999999</ele>
        <time>2024-09-29T07:18:02.000Z</time>
      </trkpt>
      <trkpt lat="27.628517" lon="-82.704484">
        <ele>1.000009</ele>
        <time>2024-09-29T07:18:04.000Z</time>
      </trkpt>
      <trkpt lat="27.628812" lon="-82.70415">
        <ele>0.999993</ele>
        <time>2024-09-29T07:18:09.000Z</time>
      </trkpt>
      <trkpt lat="27.629463" lon="-82.703526">
        <ele>1.000009</ele>
        <time>2024-09-29T07:18:18.000Z</time>
      </trkpt>
      <trkpt lat="27.629803" lon="-82.703255">
        <ele>1</ele>
        <time>2024-09-29T07:18:23.000Z</time>
      </trkpt>
      <trkpt lat="27.63049" lon="-82.702757">
        <ele>1.000004</ele>
        <time>2024-09-29T07:18:32.000Z</time>
      </trkpt>
      <trkpt lat="27.631351" lon="-82.702292">
        <ele>0.999991</ele>
        <time>2024-09-29T07:18:43.000Z</time>
      </trkpt>
      <trkpt lat="27.636593" lon="-82.69968">
        <ele>1.000005</ele>
        <time>2024-09-29T07:19:47.000Z</time>
      </trkpt>
      <trkpt lat="27.636774" lon="-82.69944">
        <ele>0.999998</ele>
        <time>2024-09-29T07:19:50.000Z</time>
      </trkpt>
      <trkpt lat="27.637013" lon="-82.69892">
        <ele>1.000006</ele>
        <time>2024-09-29T07:19:56.000Z</time>
      </trkpt>
      <trkpt lat="27.637074" lon="-82.698778">
        <ele>1.000004</ele>
        <time>2024-09-29T07:19:58.000Z</time>
      </trkpt>
      <trkpt lat="27.637138" lon="-82.698694">
        <ele>1</ele>
        <time>2024-09-29T07:19:59.000Z</time>
      </trkpt>
      <trkpt lat="27.637241" lon="-82.698642">
        <ele>0.999998</ele>
        <time>2024-09-29T07:20:00.000Z</time>
      </trkpt>
      <trkpt lat="27.637334" lon="-82.698633">
        <ele>0.999997</ele>
        <time>2024-09-29T07:20:01.000Z</time>
      </trkpt>
      <trkpt lat="27.637467" lon="-82.698692">
        <ele>0.999994</ele>
        <time>2024-09-29T07:20:03.000Z</time>
      </trkpt>
      <trkpt lat="27.637545" lon="-82.698762">
        <ele>0.999992</ele>
        <time>2024-09-29T07:20:04.000Z</time>
      </trkpt>
      <trkpt lat="27.637582" lon="-82.698869">
        <ele>1.000007</ele>
        <time>2024-09-29T07:20:05.000Z</time>
      </trkpt>
      <trkpt lat="27.637595" lon="-82.698985">
        <ele>1.000009</ele>
        <time>2024-09-29T07:20:06.000Z</time>
      </trkpt>
      <trkpt lat="27.63755" lon="-82.69916">
        <ele>1</ele>
        <time>2024-09-29T07:20:08.000Z</time>
      </trkpt>
      <trkpt lat="27.63748" lon="-82.699248">
        <ele>0.999999</ele>
        <time>2024-09-29T07:20:09.000Z</time>
      </trkpt>
      <trkpt lat="27.637379" lon="-82.699292">
        <ele>1.000007</ele>
        <time>2024-09-29T07:20:10.000Z</time>
      </trkpt>
      <trkpt lat="27.636607" lon="-82.699666">
        <ele>1</ele>
        <time>2024-09-29T07:20:19.000Z</time>
      </trkpt>
      <trkpt lat="27.63134" lon="-82.702294">
        <ele>1.000008</ele>
        <time>2024-09-29T07:21:23.000Z</time>
      </trkpt>
      <trkpt lat="27.630494" lon="-82.702759">
        <ele>0.999996</ele>
        <time>2024-09-29T07:21:33.000Z</time>
      </trkpt>
      <trkpt lat="27.629785" lon="-82.703249">
        <ele>1.000004</ele>
        <time>2024-09-29T07:21:42.000Z</time>
      </trkpt>
      <trkpt lat="27.629455" lon="-82.703529">
        <ele>1.000002</ele>
        <time>2024-09-29T07:21:47.000Z</time>
      </trkpt>
      <trkpt lat="27.628829" lon="-82.704141">
        <ele>0.999993</ele>
        <time>2024-09-29T07:21:56.000Z</time>
      </trkpt>
      <trkpt lat="27.628525" lon="-82.704499">
        <ele>1.000007</ele>
        <time>2024-09-29T07:22:01.000Z</time>
      </trkpt>
      <trkpt lat="27.628395" lon="-82.704663">
        <ele>0.999998</ele>
        <time>2024-09-29T07:22:03.000Z</time>
      </trkpt>
      <trkpt lat="27.628223" lon="-82.704886">
        <ele>1.000002</ele>
        <time>2024-09-29T07:22:06.000Z</time>
      </trkpt>
      <trkpt lat="27.627937" lon="-82.705296">
        <ele>0.999995</ele>
        <time>2024-09-29T07:22:11.000Z</time>
      </trkpt>
      <trkpt lat="27.627757" lon="-82.705614">
        <ele>0.999993</ele>
        <time>2024-09-29T07:22:15.000Z</time>
      </trkpt>
      <trkpt lat="27.62715" lon="-82.706811">
        <ele>1.000003</ele>
        <time>2024-09-29T07:22:29.000Z</time>
      </trkpt>
      <trkpt lat="27.626679" lon="-82.707808">
        <ele>1.000004</ele>
        <time>2024-09-29T07:22:40.000Z</time>
      </trkpt>
      <trkpt lat="27.626193" lon="-82.708844">
        <ele>0.999998</ele>
        <time>2024-09-29T07:22:52.000Z</time>
      </trkpt>
      <trkpt lat="27.625923" lon="-82.709461">
        <ele>0.999997</ele>
        <time>2024-09-29T07:22:59.000Z</time>
      </trkpt>
      <trkpt lat="27.625569" lon="-82.710193">
        <ele>1.000008</ele>
        <time>2024-09-29T07:23:07.000Z</time>
      </trkpt>
      <trkpt lat="27.62496" lon="-82.711516">
        <ele>0.999991</ele>
        <time>2024-09-29T07:23:22.000Z</time>
      </trkpt>
      <trkpt lat="27.624577" lon="-82.712346">
        <ele>1.000007</ele>
        <time>2024-09-29T07:23:31.000Z</time>
      </trkpt>
      <trkpt lat="27.624198" lon="-82.713173">
        <ele>1.000008</ele>
        <time>2024-09-29T07:23:40.000Z</time>
      </trkpt>
      <trkpt lat="27.62378" lon="-82.714009">
        <ele>1.000001</ele>
        <time>2024-09-29T07:23:49.000Z</time>
      </trkpt>
      <trkpt lat="27.623658" lon="-82.714285">
        <ele>1.000001</ele>
        <time>2024-09-29T07:23:52.000Z</time>
      </trkpt>
      <trkpt lat="27.623326" lon="-82.715014">
        <ele>1</ele>
        <time>2024-09-29T07:24:00.000Z</time>
      </trkpt>
      <trkpt lat="27.620033" lon="-82.722125">
        <ele>0.999999</ele>
        <time>2024-09-29T07:25:19.000Z</time>
      </trkpt>
      <trkpt lat="27.618034" lon="-82.726412">
        <ele>1.000005</ele>
        <time>2024-09-29T07:26:07.000Z</time>
      </trkpt>
      <trkpt lat="27.617407" lon="-82.727793">
        <ele>0.999992</ele>
        <time>2024-09-29T07:26:22.000Z</time>
      </trkpt>
      <trkpt lat="27.617157" lon="-82.728299">
        <ele>1.000008</ele>
        <time>2024-09-29T07:26:28.000Z</time>
      </trkpt>
      <trkpt lat="27.616438" lon="-82.729854">
        <ele>1.016576</ele>
        <time>2024-09-29T07:26:45.000Z</time>
      </trkpt>
      <trkpt lat="27.616206" lon="-82.730337">
        <ele>1.02369</ele>
        <time>2024-09-29T07:26:50.000Z</time>
      </trkpt>
      <trkpt lat="27.615607" lon="-82.731563">
        <ele>1.134017</ele>
        <time>2024-09-29T07:27:04.000Z</time>
      </trkpt>
      <trkpt lat="27.615481" lon="-82.731951">
        <ele>1.171361</ele>
        <time>2024-09-29T07:27:08.000Z</time>
      </trkpt>
      <trkpt lat="27.615384" lon="-82.732564">
        <ele>1.271018</ele>
        <time>2024-09-29T07:27:14.000Z</time>
      </trkpt>
      <trkpt lat="27.615459" lon="-82.733192">
        <ele>1.479136</ele>
        <time>2024-09-29T07:27:20.000Z</time>
      </trkpt>
      <trkpt lat="27.615595" lon="-82.733628">
        <ele>1.633871</ele>
        <time>2024-09-29T07:27:25.000Z</time>
      </trkpt>
      <trkpt lat="27.615768" lon="-82.733915">
        <ele>1.744708</ele>
        <time>2024-09-29T07:27:28.000Z</time>
      </trkpt>
      <trkpt lat="27.615923" lon="-82.734121">
        <ele>1.836902</ele>
        <time>2024-09-29T07:27:31.000Z</time>
      </trkpt>
      <trkpt lat="27.616371" lon="-82.734538">
        <ele>2.041905</ele>
        <time>2024-09-29T07:27:37.000Z</time>
      </trkpt>
      <trkpt lat="27.616752" lon="-82.734724">
        <ele>2.185647</ele>
        <time>2024-09-29T07:27:42.000Z</time>
      </trkpt>
      <trkpt lat="27.617137" lon="-82.73481">
        <ele>2.322821</ele>
        <time>2024-09-29T07:27:46.000Z</time>
      </trkpt>
      <trkpt lat="27.617931" lon="-82.734835">
        <ele>2.496424</ele>
        <time>2024-09-29T07:27:55.000Z</time>
      </trkpt>
      <trkpt lat="27.618627" lon="-82.734844">
        <ele>2.479556</ele>
        <time>2024-09-29T07:28:03.000Z</time>
      </trkpt>
      <trkpt lat="27.62747" lon="-82.734975">
        <ele>1.153289</ele>
        <time>2024-09-29T07:29:41.000Z</time>
      </trkpt>
      <trkpt lat="27.629454" lon="-82.735017">
        <ele>1.022395</ele>
        <time>2024-09-29T07:30:03.000Z</time>
      </trkpt>
      <trkpt lat="27.631949" lon="-82.735045">
        <ele>0.937011363027</ele>
        <time>2024-09-29T07:30:31.000Z</time>
      </trkpt>
      <trkpt lat="27.631993" lon="-82.735042">
        <ele>0.935502929428</ele>
        <time>2024-09-29T07:30:31.000Z</time>
      </trkpt>
      <trkpt lat="27.633342" lon="-82.735053">
        <ele>0.889338665344</ele>
        <time>2024-09-29T07:30:46.000Z</time>
      </trkpt>
      <trkpt lat="27.633755" lon="-82.735087">
        <ele>0.875168180571</ele>
        <time>2024-09-29T07:30:51.000Z</time>
      </trkpt>
      <trkpt lat="27.634229" lon="-82.735163">
        <ele>0.85878497606</ele>
        <time>2024-09-29T07:30:56.000Z</time>
      </trkpt>
      <trkpt lat="27.634835" lon="-82.735312">
        <ele>0.837561253902</ele>
        <time>2024-09-29T07:31:03.000Z</time>
      </trkpt>
      <trkpt lat="27.635526" lon="-82.735532">
        <ele>0.812992483116</ele>
        <time>2024-09-29T07:31:11.000Z</time>
      </trkpt>
      <trkpt lat="27.63587" lon="-82.735674">
        <ele>0.800458278754</ele>
        <time>2024-09-29T07:31:15.000Z</time>
      </trkpt>
      <trkpt lat="27.637477" lon="-82.736512">
        <ele>0.739881824645</ele>
        <time>2024-09-29T07:31:35.000Z</time>
      </trkpt>
      <trkpt lat="27.637868" lon="-82.736714">
        <ele>0.725166950218</ele>
        <time>2024-09-29T07:31:40.000Z</time>
      </trkpt>
      <trkpt lat="27.639237" lon="-82.737421">
        <ele>0.673649402887</ele>
        <time>2024-09-29T07:31:57.000Z</time>
      </trkpt>
      <trkpt lat="27.639836" lon="-82.737737">
        <ele>0.651023479614</ele>
        <time>2024-09-29T07:32:04.000Z</time>
      </trkpt>
      <trkpt lat="27.641829" lon="-82.738767">
        <ele>0.576014745727</ele>
        <time>2024-09-29T07:32:28.000Z</time>
      </trkpt>
      <trkpt lat="27.642221" lon="-82.738787">
        <ele>0.562586730241</ele>
        <time>2024-09-29T07:32:32.000Z</time>
      </trkpt>
      <trkpt lat="27.642644" lon="-82.738649">
        <ele>0.547519197725</ele>
        <time>2024-09-29T07:32:37.000Z</time>
      </trkpt>
      <trkpt lat="27.642733" lon="-82.73859">
        <ele>0.543987265141</ele>
        <time>2024-09-29T07:32:38.000Z</time>
      </trkpt>
      <trkpt lat="27.642859" lon="-82.738571">
        <ele>0.539637219607</ele>
        <time>2024-09-29T07:32:39.000Z</time>
      </trkpt>
      <trkpt lat="27.642963" lon="-82.738596">
        <ele>0.53599852149</ele>
        <time>2024-09-29T07:32:40.000Z</time>
      </trkpt>
      <trkpt lat="27.643057" lon="-82.738662">
        <ele>0.532210369642</ele>
        <time>2024-09-29T07:32:41.000Z</time>
      </trkpt>
      <trkpt lat="27.643106" lon="-82.738725">
        <ele>0.529668927857</ele>
        <time>2024-09-29T07:32:42.000Z</time>
      </trkpt>
      <trkpt lat="27.64315" lon="-82.73885">
        <ele>0.525591473223</ele>
        <time>2024-09-29T07:32:43.000Z</time>
      </trkpt>
      <trkpt lat="27.643163" lon="-82.73898">
        <ele>0.521625607885</ele>
        <time>2024-09-29T07:32:44.000Z</time>
      </trkpt>
      <trkpt lat="27.643127" lon="-82.739101">
        <ele>0.51775624948</ele>
        <time>2024-09-29T07:32:45.000Z</time>
      </trkpt>
      <trkpt lat="27.643028" lon="-82.739236">
        <ele>0.51244352844</ele>
        <time>2024-09-29T07:32:47.000Z</time>
      </trkpt>
      <trkpt lat="27.64293" lon="-82.739288">
        <ele>0.508737946361</ele>
        <time>2024-09-29T07:32:48.000Z</time>
      </trkpt>
      <trkpt lat="27.64281" lon="-82.739311">
        <ele>0.504572751278</ele>
        <time>2024-09-29T07:32:49.000Z</time>
      </trkpt>
      <trkpt lat="27.642711" lon="-82.739273">
        <ele>0.500994461218</ele>
        <time>2024-09-29T07:32:50.000Z</time>
      </trkpt>
      <trkpt lat="27.642574" lon="-82.73915">
        <ele>0.495004320533</ele>
        <time>2024-09-29T07:32:52.000Z</time>
      </trkpt>
      <trkpt lat="27.64194" lon="-82.738838">
        <ele>0.471336728983</ele>
        <time>2024-09-29T07:33:00.000Z</time>
      </trkpt>
      <trkpt lat="27.641824" lon="-82.738767">
        <ele>0.466821223044</ele>
        <time>2024-09-29T07:33:01.000Z</time>
      </trkpt>
      <trkpt lat="27.639829" lon="-82.737726">
        <ele>0.391610946222</ele>
        <time>2024-09-29T07:33:25.000Z</time>
      </trkpt>
      <trkpt lat="27.639238" lon="-82.737435">
        <ele>0.369546532635</ele>
        <time>2024-09-29T07:33:32.000Z</time>
      </trkpt>
      <trkpt lat="27.637869" lon="-82.736709">
        <ele>0.317786703433</ele>
        <time>2024-09-29T07:33:49.000Z</time>
      </trkpt>
      <trkpt lat="27.637689" lon="-82.737163">
        <ele>0.302707937003</ele>
        <time>2024-09-29T07:33:54.000Z</time>
      </trkpt>
      <trkpt lat="27.638941" lon="-82.737816">
        <ele>0.255511919711</ele>
        <time>2024-09-29T07:34:09.000Z</time>
      </trkpt>
    </trkseg>
  </trk>
</gpx>

<!--
Performance optimized by W3 Total Cache. Learn more: https://www.boldgrid.com/w3-total-cache/?utm_source=w3tc&utm_medium=footer_comment&utm_campaign=free_plugin

Page Caching using Disk: Enhanced{w3tc_pagecache_reject_reason} 

Served from: www.aquabike.world @ 2026-05-10 20:40:56 by W3 Total Cache
-->